Time;durP1;ratioP1;P1;durP2;ratioP2;P2;SDS_P1;SDS_P2;PMS_P1;PMS_P2;Temp;Humidity;BMP_temperature;BMP_pressure;BME280_temperature;BME280_humidity;BME280_pressure;Samples;Min_cycle;Max_cycle;Signal;HPM_P1;HPM_P2
2023/09/09 00:02:39;;;;;;;12.73;11.43;;;27.00;63.60;;;;;;4187390;28;20097;-39
2023/09/09 00:05:20;;;;;;;;;;;27.00;63.70;;;;;;4187867;28;20051;-39
2023/09/09 00:08:02;;;;;;;12.30;11.10;;;27.00;63.80;;;;;;4185849;28;20076;-38
2023/09/09 00:10:43;;;;;;;12.63;10.27;;;27.00;64.00;;;;;;4185322;28;20186;-39
2023/09/09 00:13:24;;;;;;;;;;;27.00;63.90;;;;;;4182410;28;20154;-40
2023/09/09 00:16:05;;;;;;;10.73;9.73;;;27.00;64.00;;;;;;4187456;28;19927;-39
2023/09/09 00:18:46;;;;;;;10.65;9.52;;;27.00;64.30;;;;;;4187567;28;20058;-40
2023/09/09 00:21:27;;;;;;;10.02;8.98;;;27.00;64.10;;;;;;4186688;28;20519;-40
2023/09/09 00:24:10;;;;;;;10.70;9.48;;;26.90;63.90;;;;;;4186556;28;20782;-39
2023/09/09 00:26:51;;;;;;;12.40;10.40;;;26.90;63.80;;;;;;4187401;28;20079;-39
2023/09/09 00:29:33;;;;;;;10.70;9.68;;;26.90;63.90;;;;;;4177679;28;20097;-39
2023/09/09 00:32:14;;;;;;;12.60;11.40;;;26.90;64.80;;;;;;4185513;28;20057;-51
2023/09/09 00:34:55;;;;;;;13.70;12.35;;;26.90;63.90;;;;;;4187189;28;20067;-49
2023/09/09 00:37:36;;;;;;;15.60;11.82;;;26.90;63.90;;;;;;4186153;28;20055;-48
2023/09/09 00:40:18;;;;;;;13.35;11.13;;;26.90;64.00;;;;;;4186802;28;20051;-50
2023/09/09 00:43:00;;;;;;;14.45;12.25;;;26.90;63.90;;;;;;4171484;28;20060;-49
2023/09/09 00:45:41;;;;;;;12.43;11.23;;;26.90;64.00;;;;;;4169459;28;20099;-48
2023/09/09 00:48:21;;;;;;;;;;;26.80;63.90;;;;;;4171559;28;20170;-49
2023/09/09 00:51:03;;;;;;;11.73;10.73;;;26.80;64.10;;;;;;4171703;28;19931;-49
2023/09/09 00:53:43;;;;;;;;;;;26.80;64.30;;;;;;4186722;28;20055;-46
2023/09/09 00:56:27;;;;;;;13.13;9.98;;;26.80;64.30;;;;;;4186200;28;19931;-50
2023/09/09 00:59:08;;;;;;;12.23;11.10;;;26.80;64.50;;;;;;4185234;28;20069;-49
2023/09/09 01:01:49;;;;;;;11.75;10.57;;;26.80;64.20;;;;;;4170260;28;20052;-50
2023/09/09 01:04:31;;;;;;;12.00;10.82;;;26.70;64.10;;;;;;4169031;28;20064;-49
2023/09/09 01:07:12;;;;;;;12.23;10.90;;;26.80;64.10;;;;;;4169989;28;20155;-50
2023/09/09 01:09:53;;;;;;;12.13;11.02;;;26.70;64.00;;;;;;4184659;28;20059;-46
2023/09/09 01:12:36;;;;;;;;;;;26.70;64.00;;;;;;4170940;28;20125;-47
2023/09/09 01:15:17;;;;;;;13.63;12.23;;;26.70;64.30;;;;;;4169736;28;19982;-50
2023/09/09 01:17:58;;;;;;;13.63;12.32;;;26.70;64.60;;;;;;4169949;28;20392;-47
2023/09/09 01:20:43;;;;;;;13.13;11.75;;;26.70;64.40;;;;;;4182507;28;20055;-45
2023/09/09 01:23:26;;;;;;;13.32;11.93;;;26.70;64.30;;;;;;4173561;28;20060;-47
2023/09/09 01:26:06;;;;;;;15.23;13.73;;;26.60;64.30;;;;;;4187012;28;20050;-47
2023/09/09 01:28:47;;;;;;;13.10;11.98;;;26.60;64.30;;;;;;4185418;28;20557;-46
2023/09/09 01:31:28;;;;;;;;;;;26.70;64.40;;;;;;4187795;28;20141;-46
2023/09/09 01:34:09;;;;;;;13.52;12.23;;;26.60;64.50;;;;;;4197612;28;20386;-45
2023/09/09 01:36:50;;;;;;;17.13;12.85;;;26.60;64.80;;;;;;4185550;28;20190;-48
2023/09/09 01:39:33;;;;;;;12.93;11.73;;;26.60;64.60;;;;;;4186044;28;20063;-47
2023/09/09 01:42:14;;;;;;;13.45;12.13;;;26.60;64.60;;;;;;4185490;28;20094;-48
2023/09/09 01:44:55;;;;;;;13.25;11.85;;;26.60;64.50;;;;;;4185789;28;20597;-47
2023/09/09 01:47:37;;;;;;;13.50;12.18;;;26.50;64.40;;;;;;4184887;28;20194;-49
2023/09/09 01:50:19;;;;;;;15.43;13.93;;;26.60;64.50;;;;;;4186794;28;20097;-47
2023/09/09 01:52:59;;;;;;;;;;;26.60;64.50;;;;;;4185524;28;20050;-49
2023/09/09 01:55:42;;;;;;;14.50;12.00;;;26.50;64.60;;;;;;4186599;28;19949;-48
2023/09/09 01:58:23;;;;;;;13.63;12.23;;;26.50;64.90;;;;;;4186114;28;20419;-49
2023/09/09 02:01:04;;;;;;;;;;;26.50;64.80;;;;;;4185995;28;20055;-48
2023/09/09 02:03:45;;;;;;;13.50;11.55;;;26.50;64.90;;;;;;4186980;28;20073;-48
2023/09/09 02:06:27;;;;;;;;;;;26.50;65.00;;;;;;4185934;28;20072;-46
2023/09/09 02:09:08;;;;;;;14.85;13.07;;;26.40;64.90;;;;;;4186548;28;19927;-46
2023/09/09 02:11:50;;;;;;;13.80;12.55;;;26.40;65.00;;;;;;4185048;28;20055;-44
2023/09/09 02:14:31;;;;;;;14.48;13.05;;;26.40;64.80;;;;;;4177437;28;20067;-48
2023/09/09 02:17:13;;;;;;;14.30;12.90;;;26.40;64.80;;;;;;4189792;28;20048;-46
2023/09/09 02:19:55;;;;;;;15.35;13.95;;;26.40;64.90;;;;;;4187757;28;20044;-48
2023/09/09 02:22:36;;;;;;;13.95;12.57;;;26.40;64.80;;;;;;4187170;28;20383;-47
2023/09/09 02:25:18;;;;;;;14.85;13.45;;;26.40;64.70;;;;;;4188966;28;20048;-39
2023/09/09 02:28:01;;;;;;;14.68;13.20;;;26.40;64.70;;;;;;4188557;28;20056;-39
2023/09/09 02:30:44;;;;;;;15.55;13.88;;;26.40;64.80;;;;;;4189019;28;20060;-39
2023/09/09 02:33:25;;;;;;;15.77;14.18;;;26.40;64.90;;;;;;4188958;28;20066;-39
2023/09/09 02:36:06;;;;;;;16.42;14.07;;;26.40;65.00;;;;;;4187983;28;20175;-39
2023/09/09 02:38:47;;;;;;;14.80;13.38;;;26.40;65.10;;;;;;4187865;28;20051;-39
2023/09/09 02:41:30;;;;;;;17.17;15.43;;;26.40;65.10;;;;;;4188801;28;20048;-40
2023/09/09 02:44:12;;;;;;;17.65;15.85;;;26.30;65.00;;;;;;4187488;28;20055;-39
2023/09/09 02:46:53;;;;;;;17.13;14.77;;;26.30;65.10;;;;;;4189072;28;20051;-38
2023/09/09 02:49:34;;;;;;;;;;;26.30;65.10;;;;;;4182935;28;20403;-39
2023/09/09 02:52:15;;;;;;;20.08;15.95;;;26.30;65.20;;;;;;4171747;28;19928;-39
2023/09/09 02:54:56;;;;;;;17.70;16.02;;;26.30;65.50;;;;;;4171971;28;20068;-45
2023/09/09 02:57:37;;;;;;;18.02;16.10;;;26.30;65.40;;;;;;4170974;28;20048;-46
2023/09/09 03:00:19;;;;;;;17.02;15.27;;;26.30;65.40;;;;;;4185938;28;20048;-48
2023/09/09 03:03:00;;;;;;;17.77;15.90;;;26.30;65.40;;;;;;4187953;28;20158;-48
2023/09/09 03:05:41;;;;;;;17.15;15.45;;;26.30;65.40;;;;;;4189014;28;20052;-48
2023/09/09 03:08:22;;;;;;;;;;;26.20;65.30;;;;;;4187767;28;20059;-47
2023/09/09 03:11:03;;;;;;;18.92;16.13;;;26.30;65.50;;;;;;4187691;28;19931;-45
2023/09/09 03:13:44;;;;;;;16.50;14.80;;;26.20;66.60;;;;;;4187660;28;20407;-49
2023/09/09 03:16:27;;;;;;;20.05;15.75;;;26.20;65.60;;;;;;4187367;28;20055;-50
2023/09/09 03:19:07;;;;;;;17.92;16.02;;;26.20;65.50;;;;;;4186983;28;20052;-46
2023/09/09 03:21:48;;;;;;;17.27;15.50;;;26.20;65.60;;;;;;4186972;28;20169;-49
2023/09/09 03:24:30;;;;;;;19.63;17.58;;;26.20;65.60;;;;;;4188733;28;20059;-47
2023/09/09 03:27:10;;;;;;;;;;;26.10;65.50;;;;;;4187759;28;20051;-51
2023/09/09 03:29:51;;;;;;;19.13;17.40;;;26.20;65.70;;;;;;4171021;28;20390;-49
2023/09/09 03:32:33;;;;;;;;;;;26.10;65.90;;;;;;4170658;28;20063;-39
2023/09/09 03:35:15;;;;;;;18.95;17.08;;;26.10;65.90;;;;;;4170364;28;19927;-38
2023/09/09 03:37:56;;;;;;;18.65;16.83;;;26.10;66.10;;;;;;4171699;28;20388;-39
2023/09/09 03:40:37;;;;;;;;;;;26.10;66.00;;;;;;4186110;28;20051;-38
2023/09/09 03:43:18;;;;;;;18.85;16.83;;;26.10;66.10;;;;;;4175766;28;19967;-39
2023/09/09 03:45:59;;;;;;;19.63;17.63;;;26.10;66.30;;;;;;4186954;28;20050;-39
2023/09/09 03:48:42;;;;;;;20.02;18.08;;;26.00;66.10;;;;;;4186699;28;20455;-46
2023/09/09 03:51:23;;;;;;;20.73;18.42;;;26.00;66.00;;;;;;4186092;28;20194;-48
2023/09/09 03:54:05;;;;;;;21.42;18.95;;;26.00;66.00;;;;;;4175798;28;20540;-49
2023/09/09 03:56:46;;;;;;;22.27;19.98;;;26.00;66.10;;;;;;4187597;28;20051;-47
2023/09/09 03:59:29;;;;;;;21.90;19.75;;;26.00;66.10;;;;;;4181741;28;20052;-47
2023/09/09 04:02:10;;;;;;;21.75;19.55;;;26.00;66.30;;;;;;4163836;28;20503;-48
2023/09/09 04:04:53;;;;;;;19.85;17.75;;;26.00;66.40;;;;;;4170208;28;20453;-46
2023/09/09 04:07:35;;;;;;;19.58;17.67;;;26.00;67.20;;;;;;4170529;28;20060;-48
2023/09/09 04:10:18;;;;;;;18.40;16.55;;;26.00;66.40;;;;;;4171340;28;20056;-45
2023/09/09 04:12:59;;;;;;;19.50;17.42;;;26.00;66.50;;;;;;4182468;28;20388;-46
2023/09/09 04:15:40;;;;;;;18.77;16.92;;;26.00;66.30;;;;;;4187285;28;20178;-51
2023/09/09 04:18:22;;;;;;;20.48;18.38;;;25.90;66.30;;;;;;4185235;28;20178;-46
2023/09/09 04:21:19;;;;;;;20.40;17.40;;;25.90;66.20;;;;;;4185537;28;20059;-47
2023/09/09 04:24:00;;;;;;;19.98;17.88;;;25.90;66.20;;;;;;4186549;28;20107;-50
2023/09/09 04:26:41;;;;;;;18.65;16.85;;;25.90;66.10;;;;;;4187709;28;20105;-46
2023/09/09 04:29:22;;;;;;;21.55;18.73;;;25.90;66.00;;;;;;4186866;28;20050;-47
2023/09/09 04:32:03;;;;;;;19.90;17.85;;;25.90;66.00;;;;;;4186682;28;20051;-45
2023/09/09 04:34:45;;;;;;;20.77;18.77;;;25.90;66.20;;;;;;4183609;28;20173;-46
2023/09/09 04:37:30;;;;;;;21.02;18.80;;;25.90;66.30;;;;;;4186225;28;20418;-45
2023/09/09 04:40:12;;;;;;;21.85;19.60;;;25.90;66.30;;;;;;4181441;28;20056;-45
2023/09/09 04:42:53;;;;;;;22.20;18.17;;;25.90;66.30;;;;;;4185952;28;20055;-50
2023/09/09 04:45:34;;;;;;;20.50;18.20;;;25.90;66.30;;;;;;4187092;28;20132;-47
2023/09/09 04:48:15;;;;;;;;;;;25.80;66.20;;;;;;4186527;28;20074;-39
2023/09/09 04:50:57;;;;;;;20.98;18.77;;;25.80;66.20;;;;;;4182896;28;19946;-39
2023/09/09 04:53:39;;;;;;;21.52;19.25;;;25.80;66.50;;;;;;4186503;28;20051;-39
2023/09/09 04:56:20;;;;;;;22.52;20.23;;;25.80;66.40;;;;;;4186744;28;20097;-39
2023/09/09 04:59:01;;;;;;;23.42;20.95;;;25.80;66.40;;;;;;4184292;28;20187;-39
2023/09/09 05:01:42;;;;;;;23.83;21.23;;;25.80;66.60;;;;;;4186740;28;20102;-39
2023/09/09 05:04:24;;;;;;;22.80;20.45;;;25.80;66.70;;;;;;4184817;28;20071;-47
2023/09/09 05:07:06;;;;;;;21.45;19.45;;;25.80;66.70;;;;;;4185875;28;20056;-47
2023/09/09 05:09:48;;;;;;;23.88;21.38;;;25.80;66.70;;;;;;4158093;28;20182;-47
2023/09/09 05:12:29;;;;;;;23.15;20.85;;;25.80;66.70;;;;;;4184916;28;20059;-47
2023/09/09 05:15:13;;;;;;;23.00;20.63;;;25.80;66.70;;;;;;4185823;28;20051;-48
2023/09/09 05:17:54;;;;;;;25.50;22.80;;;25.70;66.70;;;;;;4185810;28;20202;-49
2023/09/09 05:20:35;;;;;;;24.05;21.50;;;25.70;66.60;;;;;;4186481;28;20055;-50
2023/09/09 05:23:16;;;;;;;23.55;21.13;;;25.70;66.70;;;;;;4185684;28;20495;-40
2023/09/09 05:25:59;;;;;;;23.25;20.92;;;25.70;67.00;;;;;;4185135;28;20166;-40
2023/09/09 05:28:40;;;;;;;25.35;22.60;;;25.70;67.00;;;;;;4185658;28;20047;-39
2023/09/09 05:31:21;;;;;;;25.45;22.25;;;25.70;67.00;;;;;;4186126;28;20063;-39
2023/09/09 05:34:02;;;;;;;24.48;21.98;;;25.60;67.10;;;;;;4185975;28;20047;-39
2023/09/09 05:36:44;;;;;;;23.70;21.30;;;25.60;67.10;;;;;;4185749;28;20055;-39
2023/09/09 05:39:25;;;;;;;23.48;20.92;;;25.60;67.10;;;;;;4168765;28;20141;-39
2023/09/09 05:42:07;;;;;;;23.10;20.80;;;25.60;67.20;;;;;;4168592;28;20163;-38
2023/09/09 05:44:49;;;;;;;24.67;22.02;;;25.70;67.30;;;;;;4167650;28;20056;-38
2023/09/09 05:47:31;;;;;;;22.75;20.35;;;25.60;67.40;;;;;;4183065;28;20051;-38
2023/09/09 05:50:12;;;;;;;;;;;25.60;67.70;;;;;;4185224;28;20052;-38
2023/09/09 05:52:53;;;;;;;23.92;20.42;;;25.60;67.90;;;;;;4186565;28;19930;-38
2023/09/09 05:55:38;;;;;;;25.00;22.30;;;25.60;68.10;;;;;;4189987;28;20055;-44
2023/09/09 05:58:20;;;;;;;25.17;21.60;;;25.60;68.20;;;;;;4175319;28;20056;-45
2023/09/09 06:01:01;;;;;;;23.50;21.00;;;25.60;68.10;;;;;;4188770;28;20048;-47
2023/09/09 06:03:42;;;;;;;;;;;25.60;68.10;;;;;;4189724;28;20415;-45
2023/09/09 06:06:24;;;;;;;24.95;22.25;;;25.60;68.10;;;;;;4147806;28;19936;-44
2023/09/09 06:09:05;;;;;;;;;;;25.50;68.10;;;;;;4172625;28;20775;-47
2023/09/09 06:11:46;;;;;;;24.23;20.15;;;25.50;68.10;;;;;;4171807;28;19927;-47
2023/09/09 06:14:28;;;;;;;;;;;25.50;68.20;;;;;;4184924;28;20129;-48
2023/09/09 06:17:09;;;;;;;25.52;21.60;;;25.50;68.20;;;;;;4176925;28;20318;-38
2023/09/09 06:19:49;;;;;;;22.65;20.35;;;25.50;68.30;;;;;;4188249;28;20063;-38
2023/09/09 06:22:32;;;;;;;;;;;25.50;68.30;;;;;;4188723;28;20503;-38
2023/09/09 06:25:13;;;;;;;21.92;19.73;;;25.50;68.40;;;;;;4187986;28;20394;-38
2023/09/09 06:27:54;;;;;;;22.65;20.35;;;25.50;68.40;;;;;;4171220;28;20423;-39
2023/09/09 06:30:42;;;;;;;23.50;19.95;;;25.50;68.50;;;;;;4159766;28;20048;-46
2023/09/09 06:33:23;;;;;;;21.85;19.63;;;25.40;68.50;;;;;;4185562;28;20445;-49
2023/09/09 06:36:04;;;;;;;23.63;20.40;;;25.50;68.60;;;;;;4171797;28;20527;-49
2023/09/09 06:38:46;;;;;;;22.08;19.48;;;25.50;68.70;;;;;;4171836;28;20503;-48
2023/09/09 06:41:27;;;;;;;21.90;19.63;;;25.50;68.70;;;;;;4172502;28;20467;-45
2023/09/09 06:44:08;;;;;;;;;;;25.50;68.60;;;;;;4171404;28;20187;-47
2023/09/09 06:46:51;;;;;;;22.38;19.70;;;25.50;68.60;;;;;;4187948;28;20291;-45
2023/09/09 06:49:34;;;;;;;22.52;20.00;;;25.50;68.80;;;;;;4188339;28;20063;-45
2023/09/09 06:52:16;;;;;;;21.27;19.08;;;25.50;68.90;;;;;;4188176;28;20450;-48
2023/09/09 06:54:57;;;;;;;;;;;25.50;69.10;;;;;;4188990;28;20408;-45
2023/09/09 06:57:38;;;;;;;23.23;19.25;;;25.50;69.30;;;;;;4177447;28;19927;-38
2023/09/09 07:00:19;;;;;;;;;;;25.40;69.20;;;;;;4189547;28;20189;-38
2023/09/09 07:03:01;;;;;;;20.70;17.95;;;25.50;69.50;;;;;;4183562;28;19931;-38
2023/09/09 07:05:42;;;;;;;18.75;16.83;;;25.40;69.60;;;;;;4188278;28;20197;-38
2023/09/09 07:08:23;;;;;;;18.15;16.30;;;25.50;69.90;;;;;;4188256;28;20556;-38
2023/09/09 07:11:04;;;;;;;;;;;25.50;70.10;;;;;;4189375;28;20060;-38
2023/09/09 07:13:45;;;;;;;17.77;15.90;;;25.50;70.00;;;;;;4187738;28;19931;-38
2023/09/09 07:16:28;;;;;;;17.50;15.60;;;25.50;70.20;;;;;;4188692;28;20297;-47
2023/09/09 07:19:10;;;;;;;18.92;16.35;;;25.50;70.30;;;;;;4188782;28;20093;-45
2023/09/09 07:21:51;;;;;;;18.58;16.08;;;25.50;70.50;;;;;;4188357;28;20210;-45
2023/09/09 07:24:32;;;;;;;18.63;16.63;;;25.50;70.60;;;;;;4185373;28;20071;-47
2023/09/09 07:27:14;;;;;;;18.20;16.25;;;25.60;70.80;;;;;;4188134;28;20213;-43
2023/09/09 07:29:55;;;;;;;20.42;15.90;;;25.60;71.00;;;;;;4187888;28;20052;-48
2023/09/09 07:32:36;;;;;;;;;;;25.60;71.30;;;;;;4186311;28;20502;-45
2023/09/09 07:35:18;;;;;;;17.45;15.65;;;25.70;71.20;;;;;;4186256;28;19927;-51
2023/09/09 07:37:59;;;;;;;17.23;15.43;;;25.70;71.20;;;;;;4186918;28;20054;-47
2023/09/09 07:40:40;;;;;;;17.58;15.85;;;25.80;71.20;;;;;;4187363;28;20055;-48
2023/09/09 07:43:22;;;;;;;18.60;15.40;;;25.80;71.10;;;;;;4164644;28;20051;-46
2023/09/09 07:46:02;;;;;;;18.45;15.32;;;25.80;71.10;;;;;;4188009;28;20497;-46
2023/09/09 07:48:44;;;;;;;15.95;14.32;;;25.90;71.00;;;;;;4196622;28;20415;-47
2023/09/09 07:51:29;;;;;;;19.33;14.80;;;25.90;71.00;;;;;;4179041;28;20047;-46
2023/09/09 07:54:10;;;;;;;18.15;16.42;;;25.90;71.00;;;;;;4170084;28;20129;-46
2023/09/09 07:56:51;;;;;;;;;;;25.90;71.20;;;;;;4172642;28;20056;-46
2023/09/09 07:59:32;;;;;;;18.65;15.75;;;25.90;71.00;;;;;;4175494;28;19931;-45
2023/09/09 08:02:13;;;;;;;21.83;16.15;;;25.90;71.00;;;;;;4171204;28;20507;-46
2023/09/09 08:04:54;;;;;;;17.65;15.82;;;25.90;71.30;;;;;;4187368;28;20560;-45
2023/09/09 08:07:37;;;;;;;19.38;17.23;;;26.00;71.60;;;;;;4186935;28;20051;-47
2023/09/09 08:10:20;;;;;;;19.52;16.73;;;26.00;71.80;;;;;;4187117;28;20117;-46
2023/09/09 08:13:02;;;;;;;19.48;17.40;;;26.00;71.90;;;;;;4187704;28;20046;-45
2023/09/09 08:15:43;;;;;;;20.02;17.95;;;26.00;72.00;;;;;;4187752;28;20102;-50
2023/09/09 08:18:24;;;;;;;;;;;26.00;72.10;;;;;;4188109;28;20052;-46
2023/09/09 08:21:05;;;;;;;22.42;19.80;;;26.10;72.10;;;;;;4187152;28;19932;-51
2023/09/09 08:23:47;;;;;;;20.17;18.17;;;26.10;72.10;;;;;;4187693;28;20120;-49
2023/09/09 08:26:29;;;;;;;23.67;19.17;;;26.10;72.50;;;;;;4186450;28;20063;-47
2023/09/09 08:29:10;;;;;;;22.50;19.50;;;26.10;72.60;;;;;;4187362;28;20055;-46
2023/09/09 08:31:51;;;;;;;21.35;19.15;;;26.20;72.80;;;;;;4185938;28;20498;-49
2023/09/09 08:34:32;;;;;;;;;;;26.20;72.90;;;;;;4186851;28;20047;-47
2023/09/09 08:37:13;;;;;;;25.67;20.02;;;26.20;72.80;;;;;;4187059;28;19963;-48
2023/09/09 08:39:57;;;;;;;22.45;19.77;;;26.20;72.70;;;;;;4187209;28;20051;-38
2023/09/09 08:42:52;;;;;;;20.70;18.55;;;26.30;73.10;;;;;;4179745;28;20186;-51
2023/09/09 08:45:39;;;;;;;22.67;20.02;;;26.30;73.30;;;;;;4184366;28;20523;-47
2023/09/09 08:48:23;;;;;;;26.55;19.85;;;26.30;73.30;;;;;;4187356;28;20435;-48
2023/09/09 08:51:05;;;;;;;25.63;21.02;;;26.40;73.60;;;;;;4185735;28;20063;-52
2023/09/09 08:53:47;;;;;;;26.55;20.20;;;26.40;73.50;;;;;;4185332;28;20060;-50
2023/09/09 08:56:30;;;;;;;24.23;21.77;;;26.40;73.80;;;;;;4186633;28;20055;-45
2023/09/09 08:59:13;;;;;;;21.85;19.58;;;26.40;73.80;;;;;;4184402;28;20055;-47
2023/09/09 09:02:01;;;;;;;25.60;20.65;;;26.50;73.80;;;;;;4168199;28;20044;-47
2023/09/09 09:04:44;;;;;;;22.23;19.80;;;26.50;73.90;;;;;;4170150;28;20131;-48
2023/09/09 09:07:27;;;;;;;23.00;20.63;;;26.50;73.90;;;;;;4170503;28;20064;-49
2023/09/09 09:10:09;;;;;;;24.27;21.73;;;26.50;74.00;;;;;;4186315;28;20123;-46
2023/09/09 09:12:51;;;;;;;23.60;21.10;;;26.60;74.20;;;;;;4184785;28;20604;-48
2023/09/09 09:15:35;;;;;;;23.63;21.20;;;26.60;74.20;;;;;;4186182;28;20048;-47
2023/09/09 09:18:16;;;;;;;25.77;22.98;;;26.60;74.10;;;;;;4187103;28;20059;-46
2023/09/09 09:21:05;;;;;;;;;;;26.70;74.10;;;;;;4187413;28;20078;-48
2023/09/09 09:23:47;;;;;;;21.15;19.05;;;26.70;74.00;;;;;;4189414;28;19931;-46
2023/09/09 09:26:30;;;;;;;22.63;19.10;;;26.70;73.70;;;;;;4188739;28;20526;-48
2023/09/09 09:29:12;;;;;;;23.63;21.23;;;26.80;74.00;;;;;;4186106;28;20093;-47
2023/09/09 09:31:55;;;;;;;24.70;22.15;;;26.80;74.20;;;;;;4173784;28;20404;-46
2023/09/09 09:34:37;;;;;;;26.58;23.50;;;26.80;74.10;;;;;;4180397;28;20051;-51
2023/09/09 09:37:18;;;;;;;26.05;21.98;;;26.80;74.50;;;;;;4188962;28;20429;-48
2023/09/09 09:39:59;;;;;;;28.25;21.77;;;26.90;74.20;;;;;;4190043;28;20054;-49
2023/09/09 09:42:40;;;;;;;24.23;21.65;;;26.90;74.10;;;;;;4164197;28;20052;-51
2023/09/09 09:45:25;;;;;;;22.65;20.33;;;27.00;74.90;;;;;;4185405;28;20063;-50
2023/09/09 09:48:07;;;;;;;21.08;18.90;;;27.00;73.80;;;;;;4173837;28;20056;-46
2023/09/09 09:50:53;;;;;;;22.08;19.77;;;27.00;73.60;;;;;;4182156;28;20093;-47
2023/09/09 09:53:37;;;;;;;21.27;18.67;;;27.00;73.70;;;;;;4188189;28;20178;-45
2023/09/09 09:56:19;;;;;;;22.35;19.95;;;27.10;73.60;;;;;;4189848;28;20129;-47
2023/09/09 09:59:01;;;;;;;26.30;23.55;;;27.10;73.60;;;;;;4189939;28;20059;-49
2023/09/09 10:01:43;;;;;;;;;;;27.10;73.80;;;;;;4190353;28;20155;-47
2023/09/09 10:04:26;;;;;;;27.40;21.83;;;27.10;73.40;;;;;;4188930;28;20251;-46
2023/09/09 10:07:12;;;;;;;26.33;23.23;;;27.20;73.40;;;;;;4188118;28;20063;-48
2023/09/09 10:09:59;;;;;;;22.85;20.45;;;27.20;73.90;;;;;;4188679;28;20494;-49
2023/09/09 10:12:51;;;;;;;23.25;20.88;;;27.20;73.60;;;;;;4188738;28;20616;-51
2023/09/09 10:15:33;;;;;;;23.70;21.30;;;27.30;73.70;;;;;;4188849;28;20383;-46
2023/09/09 10:18:17;;;;;;;23.83;21.35;;;27.30;73.90;;;;;;4188577;28;20143;-48
2023/09/09 10:20:59;;;;;;;22.02;19.70;;;27.30;73.80;;;;;;4189262;28;20436;-48
2023/09/09 10:23:41;;;;;;;22.35;19.92;;;27.40;73.80;;;;;;4189123;28;20043;-47
2023/09/09 10:26:23;;;;;;;21.15;18.20;;;27.40;73.70;;;;;;4188565;28;20051;-45
2023/09/09 10:29:05;;;;;;;20.70;18.65;;;27.40;73.20;;;;;;4188628;28;20097;-48
2023/09/09 10:31:49;;;;;;;22.23;18.60;;;27.40;73.30;;;;;;4187569;28;20068;-49
2023/09/09 10:34:35;;;;;;;20.00;17.95;;;27.50;73.40;;;;;;4187730;28;20091;-46
2023/09/09 10:37:20;;;;;;;19.25;17.30;;;27.50;73.10;;;;;;4188839;28;20407;-45
2023/09/09 10:40:02;;;;;;;20.20;18.15;;;27.50;73.10;;;;;;4187596;28;20093;-51
2023/09/09 10:42:45;;;;;;;19.05;16.98;;;27.60;73.10;;;;;;4176691;28;20139;-45
2023/09/09 10:45:28;;;;;;;18.98;17.08;;;27.60;72.80;;;;;;4187504;28;20064;-49
2023/09/09 10:48:10;;;;;;;18.33;16.63;;;27.70;72.70;;;;;;4173142;28;20056;-46
2023/09/09 10:50:53;;;;;;;18.35;13.95;;;27.70;72.40;;;;;;4171502;28;20088;-46
2023/09/09 10:53:36;;;;;;;15.88;14.15;;;27.70;72.30;;;;;;4172298;28;20047;-48
2023/09/09 10:56:24;;;;;;;16.92;15.10;;;27.70;72.00;;;;;;4188095;28;20125;-48
2023/09/09 10:59:17;;;;;;;14.25;12.75;;;27.80;72.10;;;;;;4189554;28;20051;-49
2023/09/09 11:02:10;;;;;;;13.80;12.35;;;27.80;71.80;;;;;;4188023;28;20165;-49
2023/09/09 11:04:58;;;;;;;14.20;12.45;;;27.80;71.50;;;;;;4180546;28;20062;-50
2023/09/09 11:07:42;;;;;;;12.38;11.27;;;27.90;71.40;;;;;;4187681;28;20067;-45
2023/09/09 11:10:23;;;;;;;12.77;11.48;;;27.90;71.30;;;;;;4189105;28;20376;-48
2023/09/09 11:13:04;;;;;;;13.55;12.18;;;27.90;71.20;;;;;;4187687;28;20059;-47
2023/09/09 11:15:52;;;;;;;;;;;27.90;71.00;;;;;;4182905;28;20054;-44
2023/09/09 11:18:33;;;;;;;15.27;12.65;;;27.90;71.00;;;;;;4188554;28;19962;-46
2023/09/09 11:21:15;;;;;;;12.93;11.63;;;28.00;71.30;;;;;;4172290;28;20067;-47
2023/09/09 11:23:58;;;;;;;16.05;14.50;;;28.10;71.60;;;;;;4177007;28;20190;-45
2023/09/09 11:26:40;;;;;;;17.30;15.55;;;28.10;71.60;;;;;;4189175;28;20556;-44
2023/09/09 11:29:21;;;;;;;17.75;15.90;;;28.10;71.30;;;;;;4186788;28;20063;-50
2023/09/09 11:32:24;;;;;;;17.20;15.35;;;28.20;71.30;;;;;;4187427;28;20056;-52
2023/09/09 11:35:08;;;;;;;13.93;12.57;;;28.20;71.20;;;;;;4187408;28;20047;-45
2023/09/09 11:37:49;;;;;;;12.93;11.77;;;28.20;71.20;;;;;;4170707;28;20060;-50
2023/09/09 11:40:32;;;;;;;15.35;13.95;;;28.30;71.20;;;;;;4187153;28;20071;-50
2023/09/09 11:43:15;;;;;;;17.48;15.65;;;28.30;70.90;;;;;;4173596;28;20043;-48
2023/09/09 11:45:57;;;;;;;23.40;14.13;;;28.40;70.60;;;;;;4187597;28;20055;-45
2023/09/09 11:48:38;;;;;;;17.08;15.32;;;28.40;70.60;;;;;;4187466;28;20518;-47
2023/09/09 11:51:19;;;;;;;;;;;28.50;70.90;;;;;;4188082;28;20051;-51
2023/09/09 11:54:00;;;;;;;18.38;16.58;;;28.50;70.70;;;;;;4187525;28;19931;-47
2023/09/09 11:56:43;;;;;;;19.30;17.17;;;28.60;70.80;;;;;;4188404;28;20193;-48
2023/09/09 11:59:24;;;;;;;19.80;15.48;;;28.60;71.20;;;;;;4183666;28;20059;-50
2023/09/09 12:02:05;;;;;;;24.98;20.60;;;28.60;71.10;;;;;;4160385;28;20108;-51
2023/09/09 12:04:56;;;;;;;23.88;21.52;;;28.70;72.00;;;;;;4181962;28;20056;-47
2023/09/09 12:07:39;;;;;;;25.48;22.95;;;28.70;71.10;;;;;;4170964;28;20400;-45
2023/09/09 12:10:20;;;;;;;23.15;20.85;;;28.70;71.00;;;;;;4178269;28;20083;-45
2023/09/09 12:13:03;;;;;;;23.48;20.98;;;28.70;71.00;;;;;;4187960;28;20107;-44
2023/09/09 12:15:44;;;;;;;23.80;21.30;;;28.70;70.90;;;;;;4187718;28;20499;-47
2023/09/09 12:18:40;;;;;;;22.73;20.10;;;28.70;70.90;;;;;;4185941;28;20178;-38
2023/09/09 12:21:21;;;;;;;;;;;28.70;70.90;;;;;;4182458;28;20052;-39
2023/09/09 12:24:01;;;;;;;23.73;21.30;;;28.70;71.20;;;;;;4188255;28;20111;-39
2023/09/09 12:26:51;;;;;;;22.50;19.25;;;28.70;70.80;;;;;;4187028;28;20631;-39
2023/09/09 12:29:34;;;;;;;22.25;19.92;;;28.70;70.70;;;;;;4187403;28;20067;-39
2023/09/09 12:32:14;;;;;;;23.33;20.83;;;28.70;70.70;;;;;;4186952;28;20059;-39
2023/09/09 12:34:56;;;;;;;22.17;19.92;;;28.60;70.30;;;;;;4187185;28;20109;-39
2023/09/09 12:37:37;;;;;;;23.65;21.02;;;28.70;70.00;;;;;;4188122;28;20758;-38
2023/09/09 12:40:18;;;;;;;;;;;28.70;69.90;;;;;;4188623;28;20046;-39
2023/09/09 12:43:09;;;;;;;20.13;17.95;;;28.70;70.00;;;;;;4188228;28;19931;-39
2023/09/09 12:45:54;;;;;;;18.40;16.63;;;28.60;70.00;;;;;;4182560;28;20185;-40
2023/09/09 12:48:52;;;;;;;19.38;17.20;;;28.60;70.00;;;;;;4186251;28;20043;-40
2023/09/09 12:51:35;;;;;;;19.55;16.40;;;28.60;69.70;;;;;;4186041;28;20435;-40
2023/09/09 12:54:16;;;;;;;19.00;16.98;;;28.60;70.00;;;;;;4170560;28;20399;-40
2023/09/09 12:56:57;;;;;;;;;;;28.70;70.00;;;;;;4171039;28;20431;-40
2023/09/09 12:59:38;;;;;;;18.95;17.15;;;28.60;70.00;;;;;;4169475;28;20371;-40
2023/09/09 13:02:20;;;;;;;;;;;28.70;69.80;;;;;;4187093;28;20154;-40
2023/09/09 13:05:01;;;;;;;16.23;14.63;;;28.70;69.30;;;;;;4183891;28;19989;-40
2023/09/09 13:07:42;;;;;;;17.75;16.00;;;28.70;69.50;;;;;;4185419;28;20194;-40
2023/09/09 13:10:23;;;;;;;15.10;13.45;;;28.70;69.20;;;;;;4185973;28;20052;-41
2023/09/09 13:13:04;;;;;;;18.15;16.35;;;28.70;69.00;;;;;;4186848;28;20186;-38
2023/09/09 13:15:50;;;;;;;18.05;16.35;;;28.70;68.70;;;;;;4187223;28;20058;-38
2023/09/09 13:18:32;;;;;;;16.63;15.10;;;28.80;68.10;;;;;;4176547;28;20068;-39
2023/09/09 13:21:13;;;;;;;15.23;13.65;;;28.80;68.30;;;;;;4187596;28;20060;-40
2023/09/09 13:23:55;;;;;;;17.83;15.85;;;28.80;68.60;;;;;;4187417;28;20055;-38
2023/09/09 13:26:36;;;;;;;15.80;14.20;;;28.80;68.40;;;;;;4187529;28;20058;-39
2023/09/09 13:29:17;;;;;;;15.25;13.75;;;28.80;68.30;;;;;;4187545;28;20178;-40
2023/09/09 13:31:58;;;;;;;18.55;14.27;;;28.90;68.80;;;;;;4187532;28;20510;-40
2023/09/09 13:34:40;;;;;;;14.82;13.07;;;28.80;69.00;;;;;;4187141;28;20502;-41
2023/09/09 13:37:21;;;;;;;16.38;14.15;;;28.90;68.40;;;;;;4187248;28;20051;-40
2023/09/09 13:40:02;;;;;;;17.27;12.98;;;28.90;68.30;;;;;;4186983;28;20574;-40
2023/09/09 13:42:43;;;;;;;15.55;13.98;;;28.90;67.80;;;;;;4187370;28;20060;-48
2023/09/09 13:45:24;;;;;;;15.00;13.25;;;28.90;67.00;;;;;;4186558;28;20495;-49
2023/09/09 13:48:06;;;;;;;15.50;13.68;;;28.90;66.80;;;;;;4187319;28;20125;-46
2023/09/09 13:50:51;;;;;;;15.93;14.32;;;29.00;66.70;;;;;;4184820;28;20079;-44
2023/09/09 13:53:32;;;;;;;16.02;14.35;;;29.00;66.20;;;;;;4170286;28;20060;-45
2023/09/09 13:56:14;;;;;;;15.82;13.48;;;29.00;66.00;;;;;;4170356;28;20066;-46